Capitol Logistics 7488

Operating for MZN



KRIV
March Air Reserve Base
Riverside, California
KBNA
Nashville International Airport
Nashville, Tennessee

Activity Log

Date Flight Route Aircraft Duration
No Flights Yet

Route Details

Aircraft Information
Group: North America Fleet
Types: B738,B752,B762,B763
Route Data
Demand: M
Distance: 1505nm
Duration: 3h 37m
Recm'd Route: SKYES4 TRM PKE J78 DRK J134 LBL PER RZC ARG LOPPY CHSNE2
Origin Wx: KRIV 252158Z AUTO 00000KT 10SM CLR 20/M04 A2993 RMK AO2 SLP134 T02001037
Dest. Wx: KBNA 252153Z 35011KT 10SM CLR 03/M08 A3022 RMK AO2 SLP236 T00281083 $
Notes:

Financial History
Total Freight: 0lbs
Average Load: 0lbs/flt
Fuel Used: 0lbs
Avg. Fuel Used: 0lbs/flt
Fuel Expense: $0
Avg. Fuel Expense: $0
Avg. Fuel Cost: $0/lbs
Total Gross Income: $0
Pilot Pay: $0
Total Expenses: $0
Total Revenue: $0
Average Revenue: $0